Darstellungsparameter: Aktuell verwendete Einstellungen:
Skalierung der Graphiken ... ?
xyx+y,   Skalierungsfaktor:      Skalierung: Modus: x, Faktor: 1
Darstellungszeitraum ... ?
Vom - - bis: - -   Zeitraum: 04.08.2019 - 04.08.2019
Min/Max/Avg-Anzeige ... ?
Zeige MMA aktuell
Zeige MMA Monat
Zeige MMA alles
Zeige --A aktuell
Zeige --A Monat
Zeige --A alles
Keine MMA-Anzeige
MMA:
Keine MMA-Graphiken
MMA-Basis: 04.08.2019 - 04.08.2019
Quicknavigation für Darstellung... ?
Tage:      1T, 2T, 3T, 5T -1T -2T -3T -5T +1T +2T +3T +5T
Wochen: 1W, 2W, 3W -1W -2W -3W +1W +2W +3W
Monate: 1M, 3M, 6M -1M -3M -6M +1M +3M +6M
Jahre:    1J, 3J, 5J, 10J -1J -3J -5J -10J +1J +3J +5J +10J
Nutze für die Darstellung ... ?
Originaldaten oder Mittelwerte auf ...
Stundenbasis Tagesbasis Wochenbasis
Monatsbasis Jahresbasis      Datenbasis: Original-Daten
Darstellen als:
Statistik (Auto) Statistik J:M      Darstellung:
Zur Graphik,    zurück zur Übersicht aller Sensoren.
 
Tabellarische Datenbersicht: ?
 
Sensor: Nr:Datum:Temp:Abs-Feuchte:Windchill:Wind:
Aussen-T/F 1 04-08-2019 00:00:00 16.7 C 11.37 g/m*3 16.7 C 0 km/h
2 04-08-2019 00:05:00 16.6 C 11.44 g/m*3 16.6 C 0 km/h
3 04-08-2019 00:10:00 16.5 C 11.37 g/m*3 16.5 C 0 km/h
4 04-08-2019 00:15:00 16.4 C 11.31 g/m*3 16.4 C 0 km/h
5 04-08-2019 00:20:00 16.3 C 11.24 g/m*3 16.3 C 0 km/h
6 04-08-2019 00:25:00 16.3 C 11.24 g/m*3 16.3 C 0 km/h
7 04-08-2019 00:30:00 16.2 C 11.31 g/m*3 16.2 C 0 km/h
8 04-08-2019 00:35:00 16.1 C 11.38 g/m*3 16.1 C 0 km/h
9 04-08-2019 00:40:00 16.1 C 11.38 g/m*3 16.1 C 0 km/h
10 04-08-2019 00:45:00 15.9 C 11.24 g/m*3 15.9 C 0 km/h
11 04-08-2019 00:50:00 15.8 C 11.17 g/m*3 15.8 C 0 km/h
12 04-08-2019 00:55:00 15.8 C 11.17 g/m*3 15.8 C 0 km/h
13 04-08-2019 01:00:00 15.7 C 11.24 g/m*3 15.7 C 0 km/h
14 04-08-2019 01:05:00 15.6 C 11.17 g/m*3 15.6 C 0 km/h
15 04-08-2019 01:10:00 15.6 C 11.17 g/m*3 15.6 C 0 km/h
16 04-08-2019 01:15:00 15.4 C 11.17 g/m*3 15.4 C 0 km/h
17 04-08-2019 01:20:00 15.3 C 11.1 g/m*3 15.3 C 0 km/h
18 04-08-2019 01:25:00 15.2 C 11.03 g/m*3 15.2 C 0 km/h
19 04-08-2019 01:30:00 15.1 C 11.09 g/m*3 15.1 C 0 km/h
20 04-08-2019 01:35:00 14.9 C 10.96 g/m*3 14.9 C 0 km/h
21 04-08-2019 01:40:00 14.8 C 10.89 g/m*3 14.8 C 0 km/h
22 04-08-2019 01:45:00 14.7 C 10.95 g/m*3 14.7 C 0 km/h
23 04-08-2019 01:50:00 14.6 C 10.89 g/m*3 14.6 C 0 km/h
24 04-08-2019 01:55:00 14.6 C 10.89 g/m*3 14.6 C 0 km/h
25 04-08-2019 02:00:00 14.4 C 10.75 g/m*3 14.4 C 0 km/h
Sensor: Nr:Datum:Temp:Abs-Feuchte:Windchill:Wind:
Aussen-T/F 26 04-08-2019 02:05:00 14.3 C 10.81 g/m*3 14.3 C 0 km/h
27 04-08-2019 02:10:00 14.3 C 10.81 g/m*3 14.3 C 0 km/h
28 04-08-2019 02:15:00 14.2 C 10.75 g/m*3 14.2 C 0 km/h
29 04-08-2019 02:20:00 14.1 C 10.68 g/m*3 14.1 C 0 km/h
30 04-08-2019 02:25:00 14 C 10.74 g/m*3 14 C 0 km/h
31 04-08-2019 02:30:00 13.9 C 10.67 g/m*3 13.9 C 0 km/h
32 04-08-2019 02:35:00 13.9 C 10.67 g/m*3 13.9 C 0 km/h
33 04-08-2019 02:40:00 13.8 C 10.72 g/m*3 13.8 C 0 km/h
34 04-08-2019 02:45:00 13.7 C 10.54 g/m*3 13.7 C 0 km/h
35 04-08-2019 02:50:00 13.7 C 10.66 g/m*3 13.7 C 0 km/h
36 04-08-2019 02:55:00 13.7 C 10.66 g/m*3 13.7 C 0 km/h
37 04-08-2019 03:00:00 13.6 C 10.59 g/m*3 13.6 C 0 km/h
38 04-08-2019 03:05:00 13.5 C 10.53 g/m*3 13.5 C 0 km/h
39 04-08-2019 03:10:00 13.4 C 10.46 g/m*3 13.4 C 0 km/h
40 04-08-2019 03:15:00 13.3 C 10.51 g/m*3 13.3 C 0 km/h
41 04-08-2019 03:20:00 13.3 C 10.51 g/m*3 13.3 C 0 km/h
42 04-08-2019 03:25:00 13.3 C 10.51 g/m*3 13.3 C 0 km/h
43 04-08-2019 03:30:00 13.3 C 10.51 g/m*3 13.3 C 0 km/h
44 04-08-2019 03:35:00 13.2 C 10.45 g/m*3 13.2 C 0 km/h
45 04-08-2019 03:40:00 13.2 C 10.45 g/m*3 13.2 C 0 km/h
46 04-08-2019 03:45:00 13.2 C 10.45 g/m*3 13.2 C 0 km/h
47 04-08-2019 03:50:00 13.2 C 10.56 g/m*3 13.2 C 0 km/h
48 04-08-2019 03:55:00 13.1 C 10.5 g/m*3 13.1 C 0 km/h
49 04-08-2019 04:00:00 13.1 C 10.5 g/m*3 13.1 C 0 km/h
50 04-08-2019 04:05:00 13.1 C 10.5 g/m*3 13.1 C 0 km/h
Sensor: Nr:Datum:Temp:Abs-Feuchte:Windchill:Wind:
Aussen-T/F 51 04-08-2019 04:10:00 12.9 C 10.26 g/m*3 12.9 C 0 km/h
52 04-08-2019 04:15:00 12.9 C 10.37 g/m*3 12.9 C 0 km/h
53 04-08-2019 04:20:00 12.9 C 10.37 g/m*3 12.9 C 0 km/h
54 04-08-2019 04:25:00 12.9 C 10.37 g/m*3 12.9 C 0 km/h
55 04-08-2019 04:30:00 12.9 C 10.48 g/m*3 12.9 C 0 km/h
56 04-08-2019 04:35:00 12.9 C 10.37 g/m*3 12.9 C 0 km/h
57 04-08-2019 04:40:00 12.8 C 10.3 g/m*3 12.8 C 0 km/h
58 04-08-2019 04:45:00 12.8 C 10.3 g/m*3 12.8 C 0 km/h
59 04-08-2019 04:50:00 12.7 C 10.35 g/m*3 12.7 C 0 km/h
60 04-08-2019 04:55:00 12.7 C 10.24 g/m*3 12.7 C 0 km/h
61 04-08-2019 05:00:00 12.7 C 10.35 g/m*3 12.7 C 0 km/h
62 04-08-2019 05:05:00 12.7 C 10.35 g/m*3 12.7 C 0 km/h
63 04-08-2019 05:10:00 12.6 C 10.29 g/m*3 12.6 C 0 km/h
64 04-08-2019 05:15:00 12.6 C 10.29 g/m*3 12.6 C 0 km/h
65 04-08-2019 05:20:00 12.6 C 10.29 g/m*3 12.6 C 0 km/h
66 04-08-2019 05:25:00 12.5 C 10.22 g/m*3 12.5 C 0 km/h
67 04-08-2019 05:30:00 12.4 C 10.16 g/m*3 12.4 C 0 km/h
68 04-08-2019 05:35:00 12.4 C 10.16 g/m*3 12.4 C 0 km/h
69 04-08-2019 05:40:00 12.4 C 10.16 g/m*3 12.4 C 0 km/h
70 04-08-2019 05:45:00 12.4 C 10.16 g/m*3 12.4 C 0 km/h
71 04-08-2019 05:50:00 12.3 C 10.1 g/m*3 12.3 C 0 km/h
72 04-08-2019 05:55:00 12.3 C 10.1 g/m*3 12.3 C 0 km/h
73 04-08-2019 06:00:00 12.3 C 10.1 g/m*3 12.3 C 0 km/h
74 04-08-2019 06:05:00 12.3 C 10.21 g/m*3 12.3 C 0 km/h
75 04-08-2019 06:10:00 12.3 C 10.1 g/m*3 12.3 C 0 km/h
Sensor: Nr:Datum:Temp:Abs-Feuchte:Windchill:Wind:
Aussen-T/F 76 04-08-2019 06:15:00 12.2 C 10.14 g/m*3 12.2 C 0 km/h
77 04-08-2019 06:20:00 12.3 C 10.21 g/m*3 12.3 C 0 km/h
78 04-08-2019 06:25:00 12.3 C 10.21 g/m*3 12.3 C 0 km/h
79 04-08-2019 06:30:00 12.3 C 10.21 g/m*3 12.3 C 0 km/h
80 04-08-2019 06:35:00 12.3 C 10.21 g/m*3 12.3 C 0 km/h
81 04-08-2019 06:40:00 12.4 C 10.27 g/m*3 12.4 C 0 km/h
82 04-08-2019 06:45:00 12.4 C 10.27 g/m*3 12.4 C 0 km/h
83 04-08-2019 06:50:00 12.5 C 10.33 g/m*3 12.5 C 0 km/h
84 04-08-2019 06:55:00 12.5 C 10.33 g/m*3 12.5 C 0 km/h
85 04-08-2019 07:00:00 12.5 C 10.33 g/m*3 12.5 C 0 km/h
86 04-08-2019 07:05:00 12.5 C 10.33 g/m*3 12.5 C 0 km/h
87 04-08-2019 07:10:00 12.5 C 10.33 g/m*3 12.5 C 0 km/h
88 04-08-2019 07:15:00 12.6 C 10.4 g/m*3 12.6 C 0 km/h
89 04-08-2019 07:20:00 12.6 C 10.4 g/m*3 12.6 C 0 km/h
90 04-08-2019 07:25:00 12.7 C 10.46 g/m*3 12.7 C 0 km/h
91 04-08-2019 07:30:00 12.7 C 10.46 g/m*3 12.7 C 0 km/h
92 04-08-2019 07:35:00 12.8 C 10.64 g/m*3 12.8 C 0 km/h
93 04-08-2019 07:40:00 12.8 C 10.64 g/m*3 12.8 C 0 km/h
94 04-08-2019 07:45:00 12.9 C 10.71 g/m*3 12.9 C 0 km/h
95 04-08-2019 07:50:00 13 C 10.77 g/m*3 13 C 0 km/h
96 04-08-2019 07:55:00 13.1 C 10.84 g/m*3 13.1 C 0 km/h
97 04-08-2019 08:00:00 13.2 C 10.91 g/m*3 13.2 C 0 km/h
98 04-08-2019 08:05:00 13.3 C 10.98 g/m*3 13.3 C 0 km/h
99 04-08-2019 08:10:00 13.4 C 11.04 g/m*3 13.4 C 0 km/h
100 04-08-2019 08:15:00 13.4 C 11.04 g/m*3 13.4 C 0 km/h
Sensor: Nr:Datum:Temp:Abs-Feuchte:Windchill:Wind:
Aussen-T/F 101 04-08-2019 08:20:00 13.6 C 11.18 g/m*3 13.6 C 0 km/h
102 04-08-2019 08:25:00 13.7 C 11.25 g/m*3 13.7 C 0 km/h
103 04-08-2019 08:30:00 13.8 C 11.32 g/m*3 13.8 C 0 km/h
104 04-08-2019 08:35:00 13.8 C 11.32 g/m*3 13.8 C 0 km/h
105 04-08-2019 08:40:00 14 C 11.46 g/m*3 14 C 0 km/h
106 04-08-2019 08:45:00 14.1 C 11.53 g/m*3 14.1 C 0 km/h
107 04-08-2019 08:50:00 14.2 C 11.6 g/m*3 14.2 C 0 km/h
108 04-08-2019 08:55:00 14.3 C 11.67 g/m*3 14.3 C 0 km/h
109 04-08-2019 09:00:00 14.5 C 11.82 g/m*3 14.5 C 0 km/h
110 04-08-2019 09:05:00 14.7 C 11.83 g/m*3 14.7 C 0 km/h
111 04-08-2019 09:10:00 14.8 C 11.91 g/m*3 14.8 C 0 km/h
112 04-08-2019 09:15:00 14.9 C 11.98 g/m*3 14.9 C 0 km/h
113 04-08-2019 09:20:00 15.1 C 12.13 g/m*3 15.1 C 0 km/h
114 04-08-2019 09:25:00 15.2 C 12.2 g/m*3 15.2 C 0 km/h
115 04-08-2019 09:30:00 15.3 C 12.14 g/m*3 15.3 C 0 km/h
116 04-08-2019 09:35:00 15.6 C 12.37 g/m*3 15.6 C 0 km/h
117 04-08-2019 09:40:00 15.7 C 12.31 g/m*3 15.7 C 0 km/h
118 04-08-2019 09:45:00 15.9 C 12.46 g/m*3 15.9 C 3.2 km/h
119 04-08-2019 09:50:00 16.1 C 12.47 g/m*3 16.1 C 1.6 km/h
120 04-08-2019 09:55:00 16.3 C 12.62 g/m*3 16.3 C 3.2 km/h
121 04-08-2019 10:00:00 16.6 C 12.71 g/m*3 16.6 C 3.2 km/h
122 04-08-2019 10:05:00 16.8 C 12.72 g/m*3 16.8 C 1.6 km/h
123 04-08-2019 10:10:00 17 C 12.88 g/m*3 17 C 1.6 km/h
124 04-08-2019 10:15:00 17.2 C 12.89 g/m*3 17.2 C 1.6 km/h
125 04-08-2019 10:20:00 17.4 C 12.89 g/m*3 17.4 C 1.6 km/h
Sensor: Nr:Datum:Temp:Abs-Feuchte:Windchill:Wind:
Aussen-T/F 126 04-08-2019 10:25:00 17.8 C 12.75 g/m*3 17.8 C 3.2 km/h
127 04-08-2019 10:30:00 18.2 C 12.75 g/m*3 18.2 C 1.6 km/h
128 04-08-2019 10:35:00 18.6 C 13.21 g/m*3 18.6 C 0 km/h
129 04-08-2019 10:40:00 18.8 C 12.88 g/m*3 18.8 C 6.4 km/h
130 04-08-2019 10:45:00 19.2 C 12.7 g/m*3 19.2 C 6.4 km/h
131 04-08-2019 10:50:00 19.7 C 12.91 g/m*3 19.7 C 6.4 km/h
132 04-08-2019 10:55:00 20 C 12.96 g/m*3 20 C 6.4 km/h
133 04-08-2019 11:00:00 20.3 C 12.84 g/m*3 20.3 C 3.2 km/h
134 04-08-2019 11:05:00 20.6 C 12.71 g/m*3 20.6 C 6.4 km/h
135 04-08-2019 11:10:00 20.7 C 12.78 g/m*3 20.7 C 4.8 km/h
136 04-08-2019 11:15:00 20.9 C 12.57 g/m*3 20.9 C 9.7 km/h
137 04-08-2019 11:20:00 21.2 C 12.79 g/m*3 21.2 C 6.4 km/h
138 04-08-2019 11:25:00 21.3 C 12.49 g/m*3 21.3 C 6.4 km/h
139 04-08-2019 11:30:00 21.4 C 12.37 g/m*3 21.4 C 1.6 km/h
140 04-08-2019 11:35:00 21.6 C 12.52 g/m*3 21.6 C 4.8 km/h
141 04-08-2019 11:40:00 21.7 C 12.4 g/m*3 21.7 C 3.2 km/h
142 04-08-2019 11:45:00 21.8 C 12.47 g/m*3 21.8 C 4.8 km/h
143 04-08-2019 11:50:00 22 C 12.62 g/m*3 22 C 6.4 km/h
144 04-08-2019 11:55:00 22.3 C 12.44 g/m*3 22.3 C 6.4 km/h
145 04-08-2019 12:00:00 22.4 C 12.51 g/m*3 22.4 C 6.4 km/h
146 04-08-2019 12:05:00 22.6 C 12.46 g/m*3 22.6 C 8.1 km/h
147 04-08-2019 12:10:00 22.8 C 12.4 g/m*3 22.8 C 4.8 km/h
148 04-08-2019 12:15:00 22.8 C 12.4 g/m*3 22.8 C 4.8 km/h
149 04-08-2019 12:20:00 22.9 C 12.47 g/m*3 22.9 C 4.8 km/h
150 04-08-2019 12:25:00 23.1 C 12.82 g/m*3 23.1 C 6.4 km/h
Sensor: Nr:Datum:Temp:Abs-Feuchte:Windchill:Wind:
Aussen-T/F 151 04-08-2019 12:30:00 23.3 C 12.55 g/m*3 23.3 C 6.4 km/h
152 04-08-2019 12:35:00 23.5 C 12.48 g/m*3 23.5 C 6.4 km/h
153 04-08-2019 12:40:00 23.7 C 12.41 g/m*3 23.7 C 11.3 km/h
154 04-08-2019 12:45:00 24 C 12.4 g/m*3 24 C 11.3 km/h
155 04-08-2019 12:50:00 24.2 C 12.1 g/m*3 24.2 C 9.7 km/h
156 04-08-2019 12:55:00 24.3 C 12.17 g/m*3 24.3 C 6.4 km/h
157 04-08-2019 13:00:00 24.4 C 12.24 g/m*3 24.4 C 9.7 km/h
158 04-08-2019 13:05:00 24.4 C 12.24 g/m*3 24.4 C 6.4 km/h
159 04-08-2019 13:10:00 24.4 C 12.46 g/m*3 24.4 C 6.4 km/h
160 04-08-2019 13:15:00 24.5 C 12.53 g/m*3 24.5 C 4.8 km/h
161 04-08-2019 13:20:00 24.7 C 12.45 g/m*3 24.7 C 4.8 km/h
162 04-08-2019 13:25:00 24.7 C 12.22 g/m*3 24.7 C 4.8 km/h
163 04-08-2019 13:30:00 24.8 C 12.06 g/m*3 24.8 C 3.2 km/h
164 04-08-2019 13:35:00 24.8 C 12.06 g/m*3 24.8 C 4.8 km/h
165 04-08-2019 13:40:00 25 C 11.97 g/m*3 25 C 8.1 km/h
166 04-08-2019 13:45:00 25.1 C 12.27 g/m*3 25.1 C 6.4 km/h
167 04-08-2019 13:50:00 25.1 C 11.81 g/m*3 25.1 C 6.4 km/h
168 04-08-2019 13:55:00 25.1 C 11.81 g/m*3 25.1 C 6.4 km/h
169 04-08-2019 14:00:00 25.1 C 12.04 g/m*3 25.1 C 6.4 km/h
170 04-08-2019 14:05:00 25.2 C 12.11 g/m*3 25.2 C 4.8 km/h
171 04-08-2019 14:10:00 25.4 C 11.77 g/m*3 25.4 C 8.1 km/h
172 04-08-2019 14:15:00 25.6 C 11.9 g/m*3 25.6 C 6.4 km/h
173 04-08-2019 14:20:00 25.6 C 11.9 g/m*3 25.6 C 3.2 km/h
174 04-08-2019 14:25:00 25.7 C 11.73 g/m*3 25.7 C 6.4 km/h
175 04-08-2019 14:30:00 25.9 C 11.62 g/m*3 25.9 C 8.1 km/h
Sensor: Nr:Datum:Temp:Abs-Feuchte:Windchill:Wind:
Aussen-T/F 176 04-08-2019 14:35:00 26.2 C 11.82 g/m*3 26.2 C 6.4 km/h
177 04-08-2019 14:40:00 26.3 C 11.39 g/m*3 26.3 C 6.4 km/h
178 04-08-2019 14:45:00 26.4 C 11.2 g/m*3 26.4 C 8.1 km/h
179 04-08-2019 14:50:00 26.4 C 11.45 g/m*3 26.4 C 11.3 km/h
180 04-08-2019 14:55:00 26.6 C 11.83 g/m*3 26.6 C 4.8 km/h
181 04-08-2019 15:00:00 26.8 C 11.71 g/m*3 26.8 C 6.4 km/h
182 04-08-2019 15:05:00 26.9 C 11.26 g/m*3 26.9 C 4.8 km/h
183 04-08-2019 15:10:00 27.2 C 10.93 g/m*3 27.2 C 11.3 km/h
184 04-08-2019 15:15:00 27.3 C 11.51 g/m*3 27.3 C 11.3 km/h
185 04-08-2019 15:20:00 27.6 C 11.44 g/m*3 27.6 C 6.4 km/h
186 04-08-2019 15:25:00 28.1 C 11.21 g/m*3 28.1 C 11.3 km/h
187 04-08-2019 15:30:00 28.3 C 10.78 g/m*3 28.3 C 9.7 km/h
188 04-08-2019 15:35:00 28.6 C 10.96 g/m*3 28.6 C 8.1 km/h
189 04-08-2019 15:40:00 29 C 11.2 g/m*3 29 C 6.4 km/h
190 04-08-2019 15:45:00 29.4 C 10.86 g/m*3 29.4 C 11.3 km/h
191 04-08-2019 15:50:00 29.7 C 11.04 g/m*3 29.7 C 9.7 km/h
192 04-08-2019 15:55:00 29.8 C 11.1 g/m*3 29.8 C 4.8 km/h
193 04-08-2019 16:00:00 29.9 C 10.56 g/m*3 29.9 C 8.1 km/h
194 04-08-2019 16:05:00 30.1 C 10.98 g/m*3 30.1 C 11.3 km/h
195 04-08-2019 16:10:00 30.2 C 10.73 g/m*3 30.2 C 16.1 km/h
196 04-08-2019 16:15:00 30.2 C 10.73 g/m*3 30.2 C 12.9 km/h
197 04-08-2019 16:20:00 30.2 C 11.04 g/m*3 30.2 C 9.7 km/h
198 04-08-2019 16:25:00 29.8 C 10.5 g/m*3 29.8 C 6.4 km/h
199 04-08-2019 16:30:00 29.7 C 11.04 g/m*3 29.7 C 4.8 km/h
200 04-08-2019 16:35:00 29.9 C 10.56 g/m*3 29.9 C 6.4 km/h
Sensor: Nr:Datum:Temp:Abs-Feuchte:Windchill:Wind:
Aussen-T/F 201 04-08-2019 16:40:00 30.1 C 10.06 g/m*3 30.1 C 11.3 km/h
202 04-08-2019 16:45:00 30.1 C 9.76 g/m*3 30.1 C 11.3 km/h
203 04-08-2019 16:50:00 30.1 C 9.76 g/m*3 30.1 C 8.1 km/h
204 04-08-2019 16:55:00 30.1 C 10.06 g/m*3 30.1 C 6.4 km/h
205 04-08-2019 17:00:00 30.2 C 10.42 g/m*3 30.2 C 4.8 km/h
206 04-08-2019 17:05:00 30.4 C 9.92 g/m*3 30.4 C 6.4 km/h
207 04-08-2019 17:10:00 30.7 C 10.39 g/m*3 30.7 C 6.4 km/h
208 04-08-2019 17:15:00 30.9 C 10.19 g/m*3 30.9 C 11.3 km/h
209 04-08-2019 17:20:00 31 C 10.24 g/m*3 31 C 9.7 km/h
210 04-08-2019 17:25:00 31.1 C 10.3 g/m*3 31.1 C 8.1 km/h
211 04-08-2019 17:30:00 31.2 C 10.35 g/m*3 31.2 C 12.9 km/h
212 04-08-2019 17:35:00 31.2 C 10.35 g/m*3 31.2 C 8.1 km/h
213 04-08-2019 17:40:00 31.3 C 10.08 g/m*3 31.3 C 6.4 km/h
214 04-08-2019 17:45:00 31.3 C 10.08 g/m*3 31.3 C 9.7 km/h
215 04-08-2019 17:50:00 31.2 C 10.03 g/m*3 31.2 C 6.4 km/h
216 04-08-2019 17:55:00 31 C 10.56 g/m*3 31 C 11.3 km/h
217 04-08-2019 18:00:00 30.8 C 10.76 g/m*3 30.8 C 6.4 km/h
218 04-08-2019 18:05:00 30.8 C 10.45 g/m*3 30.8 C 8.1 km/h
219 04-08-2019 18:10:00 30.7 C 10.71 g/m*3 30.7 C 4.8 km/h
220 04-08-2019 18:15:00 30.7 C 10.71 g/m*3 30.7 C 6.4 km/h
221 04-08-2019 18:20:00 30.8 C 10.76 g/m*3 30.8 C 6.4 km/h
222 04-08-2019 18:25:00 31.2 C 11 g/m*3 31.2 C 9.7 km/h
223 04-08-2019 18:30:00 31.2 C 11.32 g/m*3 31.2 C 11.3 km/h
224 04-08-2019 18:35:00 31 C 10.88 g/m*3 31 C 8.1 km/h
225 04-08-2019 18:40:00 30.7 C 10.71 g/m*3 30.7 C 8.1 km/h
Sensor: Nr:Datum:Temp:Abs-Feuchte:Windchill:Wind:
Aussen-T/F 226 04-08-2019 18:45:00 30.6 C 10.34 g/m*3 30.6 C 4.8 km/h
227 04-08-2019 18:50:00 30.6 C 10.34 g/m*3 30.6 C 4.8 km/h
228 04-08-2019 18:55:00 30.4 C 10.23 g/m*3 30.4 C 8.1 km/h
229 04-08-2019 19:00:00 30.2 C 10.42 g/m*3 30.2 C 8.1 km/h
230 04-08-2019 19:05:00 29.8 C 10.5 g/m*3 29.8 C 4.8 km/h
231 04-08-2019 19:10:00 29.5 C 10.33 g/m*3 29.5 C 4.8 km/h
232 04-08-2019 19:15:00 29.3 C 11.39 g/m*3 29.3 C 1.6 km/h
233 04-08-2019 19:20:00 29.2 C 11.03 g/m*3 29.2 C 3.2 km/h
234 04-08-2019 19:25:00 28.9 C 11.71 g/m*3 28.9 C 1.6 km/h
235 04-08-2019 19:30:00 28.8 C 12.5 g/m*3 28.8 C 0 km/h
236 04-08-2019 19:35:00 28.5 C 12.02 g/m*3 28.5 C 0 km/h
237 04-08-2019 19:40:00 28.2 C 13.47 g/m*3 28.2 C 0 km/h
238 04-08-2019 19:45:00 27.8 C 12.37 g/m*3 27.8 C 0 km/h
239 04-08-2019 19:50:00 27.6 C 12.77 g/m*3 27.6 C 0 km/h
240 04-08-2019 19:55:00 27.3 C 12.56 g/m*3 27.3 C 0 km/h
241 04-08-2019 20:00:00 27.1 C 12.42 g/m*3 27.1 C 0 km/h
242 04-08-2019 20:05:00 26.8 C 12.22 g/m*3 26.8 C 0 km/h
243 04-08-2019 20:10:00 26.7 C 12.91 g/m*3 26.7 C 0 km/h
244 04-08-2019 20:15:00 26.6 C 12.59 g/m*3 26.6 C 0 km/h
245 04-08-2019 20:20:00 26.3 C 12.63 g/m*3 26.3 C 0 km/h
246 04-08-2019 20:25:00 26.1 C 12.49 g/m*3 26.1 C 0 km/h
247 04-08-2019 20:30:00 25.8 C 12.52 g/m*3 25.8 C 0 km/h
248 04-08-2019 20:35:00 25.5 C 12.55 g/m*3 25.5 C 0 km/h
249 04-08-2019 20:40:00 25.1 C 12.27 g/m*3 25.1 C 0 km/h
250 04-08-2019 20:45:00 24.8 C 12.52 g/m*3 24.8 C 0 km/h
Sensor: Nr:Datum:Temp:Abs-Feuchte:Windchill:Wind:
Aussen-T/F 251 04-08-2019 20:50:00 24.4 C 12.24 g/m*3 24.4 C 0 km/h
252 04-08-2019 20:55:00 24.2 C 12.32 g/m*3 24.2 C 0 km/h
253 04-08-2019 21:00:00 23.8 C 12.05 g/m*3 23.8 C 0 km/h
254 04-08-2019 21:05:00 23.5 C 12.05 g/m*3 23.5 C 0 km/h
255 04-08-2019 21:10:00 23.2 C 12.06 g/m*3 23.2 C 0 km/h
256 04-08-2019 21:15:00 22.9 C 12.06 g/m*3 22.9 C 0 km/h
257 04-08-2019 21:20:00 22.6 C 12.05 g/m*3 22.6 C 0 km/h
258 04-08-2019 21:25:00 22.4 C 12.11 g/m*3 22.4 C 1.6 km/h
259 04-08-2019 21:30:00 22.2 C 11.98 g/m*3 22.2 C 0 km/h
260 04-08-2019 21:35:00 22.1 C 11.91 g/m*3 22.1 C 0 km/h
261 04-08-2019 21:40:00 22 C 12.03 g/m*3 22 C 1.6 km/h
262 04-08-2019 21:45:00 21.9 C 11.96 g/m*3 21.9 C 0 km/h
263 04-08-2019 21:50:00 21.8 C 12.09 g/m*3 21.8 C 0 km/h
264 04-08-2019 21:55:00 21.8 C 12.28 g/m*3 21.8 C 0 km/h
265 04-08-2019 22:00:00 21.8 C 12.28 g/m*3 21.8 C 0 km/h
266 04-08-2019 22:05:00 21.7 C 12.21 g/m*3 21.7 C 0 km/h
267 04-08-2019 22:10:00 21.8 C 12.28 g/m*3 21.8 C 0 km/h
268 04-08-2019 22:15:00 21.8 C 12.09 g/m*3 21.8 C 0 km/h
269 04-08-2019 22:20:00 21.8 C 12.09 g/m*3 21.8 C 4.8 km/h
270 04-08-2019 22:25:00 22 C 12.23 g/m*3 22 C 0 km/h
271 04-08-2019 22:30:00 22.1 C 12.49 g/m*3 22.1 C 1.6 km/h
272 04-08-2019 22:35:00 22.1 C 12.3 g/m*3 22.1 C 0 km/h
273 04-08-2019 22:40:00 22.1 C 12.49 g/m*3 22.1 C 0 km/h
274 04-08-2019 22:45:00 22.1 C 12.49 g/m*3 22.1 C 4.8 km/h
275 04-08-2019 22:50:00 22.1 C 12.49 g/m*3 22.1 C 0 km/h
Sensor: Nr:Datum:Temp:Abs-Feuchte:Windchill:Wind:
Aussen-T/F 276 04-08-2019 22:55:00 22.1 C 12.49 g/m*3 22.1 C 1.6 km/h
277 04-08-2019 23:00:00 22.1 C 12.49 g/m*3 22.1 C 1.6 km/h
278 04-08-2019 23:05:00 22.1 C 12.3 g/m*3 22.1 C 3.2 km/h
279 04-08-2019 23:10:00 22.2 C 12.37 g/m*3 22.2 C 1.6 km/h
280 04-08-2019 23:15:00 22.3 C 12.44 g/m*3 22.3 C 0 km/h
281 04-08-2019 23:20:00 22.3 C 12.24 g/m*3 22.3 C 1.6 km/h
282 04-08-2019 23:25:00 22.3 C 12.05 g/m*3 22.3 C 6.4 km/h
283 04-08-2019 23:30:00 22.4 C 12.11 g/m*3 22.4 C 1.6 km/h
284 04-08-2019 23:35:00 22.4 C 11.92 g/m*3 22.4 C 4.8 km/h
285 04-08-2019 23:40:00 22.5 C 11.98 g/m*3 22.5 C 0 km/h
286 04-08-2019 23:45:00 22.6 C 11.85 g/m*3 22.6 C 1.6 km/h
287 04-08-2019 23:50:00 22.7 C 12.12 g/m*3 22.7 C 1.6 km/h
288 04-08-2019 23:55:00 22.8 C 11.99 g/m*3 22.8 C 6.4 km/h

Legende:
   Min
   Max


Maximal/Minimal-Werte vom 04.08.2019 - 04.08.2019

Sensor Min Max Avg
Temp
(Aussen-T/F)
12.2 °C
04-08-2019  06:15:00
31.3 °C
04-08-2019  17:40:00
20.54 °C
Abs-Feuchte
(Aussen-T/F)
9.76 g/m*3
04-08-2019  16:45:00
13.47 g/m*3
04-08-2019  19:40:00
11.35 g/m*3
Windchill
(Aussen-T/F)
12.2 C
04-08-2019  06:15:00
31.3 C
04-08-2019  17:40:00
20.47 C

Die Daten stammen von einer Davis Vantage Pro 2 Wetter-Station und werden unter Linux mit der Software wview2wettercgi und aufbereitet. Alle Angaben erfolgen ohne Gewähr für ihre Vollständigkeit oder Richtigkeit.
Kontakt: Rainer Krienke krienke@uni-koblenz.de . Meine Webseiten an der Uni Koblenz oder privat.
Version: $Revision: 0.78 $